sensor_id;sensor_type;location;lat;lon;timestamp;pressure;altitude;pressure_sealevel;temperature;humidity
2711;BME280;20721;47.402;8.550;2024-03-23T00:53:39;95646;;;14.22;46.70
2711;BME280;20721;47.402;8.550;2024-03-23T00:55:40;95641;;;14.29;46.29
2711;BME280;20721;47.402;8.550;2024-03-23T00:57:39;95632;;;14.50;46.00
2711;BME280;20721;47.402;8.550;2024-03-23T00:59:40;95629;;;14.64;46.06
2711;BME280;20721;47.402;8.550;2024-03-23T01:01:40;95637;;;14.79;45.66
2711;BME280;20721;47.402;8.550;2024-03-23T01:03:40;95627;;;14.81;45.40
2711;BME280;20721;47.402;8.550;2024-03-23T01:05:40;95616;;;14.79;45.33
2711;BME280;20721;47.402;8.550;2024-03-23T01:07:40;95615;;;14.76;45.46
2711;BME280;20721;47.402;8.550;2024-03-23T01:09:40;95616;;;14.76;45.41
2711;BME280;20721;47.402;8.550;2024-03-23T01:11:40;95604;;;14.75;45.21
2711;BME280;20721;47.402;8.550;2024-03-23T01:13:40;95605;;;14.54;45.36
2711;BME280;20721;47.402;8.550;2024-03-23T01:15:40;95604;;;14.54;45.32
2711;BME280;20721;47.402;8.550;2024-03-23T01:17:40;95605;;;14.57;45.43
2711;BME280;20721;47.402;8.550;2024-03-23T01:19:41;95606;;;14.57;45.38
2711;BME280;20721;47.402;8.550;2024-03-23T01:21:40;95606;;;14.57;45.41
2711;BME280;20721;47.402;8.550;2024-03-23T01:23:40;95604;;;14.66;45.13
2711;BME280;20721;47.402;8.550;2024-03-23T01:25:40;95596;;;14.78;44.93
2711;BME280;20721;47.402;8.550;2024-03-23T01:27:40;95599;;;14.77;44.69
2711;BME280;20721;47.402;8.550;2024-03-23T01:29:40;95598;;;14.91;44.41
2711;BME280;20721;47.402;8.550;2024-03-23T01:31:40;95595;;;14.98;44.16
2711;BME280;20721;47.402;8.550;2024-03-23T01:33:40;95592;;;15.02;44.27
2711;BME280;20721;47.402;8.550;2024-03-23T01:35:40;95592;;;15.12;44.03
2711;BME280;20721;47.402;8.550;2024-03-23T01:37:40;95590;;;15.21;43.85
2711;BME280;20721;47.402;8.550;2024-03-23T01:39:40;95586;;;15.25;43.63
2711;BME280;20721;47.402;8.550;2024-03-23T01:41:42;95590;;;15.32;43.47
2711;BME280;20721;47.402;8.550;2024-03-23T01:43:41;95587;;;15.28;43.39
2711;BME280;20721;47.402;8.550;2024-03-23T01:45:40;95582;;;15.29;43.44
2711;BME280;20721;47.402;8.550;2024-03-23T01:47:40;95577;;;15.21;43.88
2711;BME280;20721;47.402;8.550;2024-03-23T01:49:40;95573;;;15.25;43.49
2711;BME280;20721;47.402;8.550;2024-03-23T01:51:40;95569;;;15.30;43.50
2711;BME280;20721;47.402;8.550;2024-03-23T01:53:40;95563;;;15.36;43.28
2711;BME280;20721;47.402;8.550;2024-03-23T01:55:40;95556;;;15.38;43.09
2711;BME280;20721;47.402;8.550;2024-03-23T01:57:40;95547;;;15.43;43.22
2711;BME280;20721;47.402;8.550;2024-03-23T02:00:40;95541;;;15.39;43.21
2711;BME280;20721;47.402;8.550;2024-03-23T02:02:42;95546;;;15.41;43.14
2711;BME280;20721;47.402;8.550;2024-03-23T02:04:40;95544;;;15.49;43.35
2711;BME280;20721;47.402;8.550;2024-03-23T02:06:40;95541;;;15.53;43.04
2711;BME280;20721;47.402;8.550;2024-03-23T02:08:40;95535;;;15.52;42.95
2711;BME280;20721;47.402;8.550;2024-03-23T02:10:40;95529;;;15.56;43.01
2711;BME280;20721;47.402;8.550;2024-03-23T02:12:40;95528;;;15.61;43.12
2711;BME280;20721;47.402;8.550;2024-03-23T02:14:40;95522;;;15.50;43.15
2711;BME280;20721;47.402;8.550;2024-03-23T02:16:40;95518;;;15.31;43.08
2711;BME280;20721;47.402;8.550;2024-03-23T02:18:40;95525;;;15.17;43.17
2711;BME280;20721;47.402;8.550;2024-03-23T02:20:40;95517;;;15.01;43.43
2711;BME280;20721;47.402;8.550;2024-03-23T02:22:40;95518;;;14.92;43.88
2711;BME280;20721;47.402;8.550;2024-03-23T02:24:40;95513;;;14.65;44.08
2711;BME280;20721;47.402;8.550;2024-03-23T02:26:40;95512;;;14.50;44.69
2711;BME280;20721;47.402;8.550;2024-03-23T02:28:40;95501;;;14.36;44.86
2711;BME280;20721;47.402;8.550;2024-03-23T02:30:40;95507;;;14.36;45.06
2711;BME280;20721;47.402;8.550;2024-03-23T02:32:40;95496;;;14.34;44.75
2711;BME280;20721;47.402;8.550;2024-03-23T02:34:40;95491;;;14.30;45.10
2711;BME280;20721;47.402;8.550;2024-03-23T02:36:40;95486;;;14.39;44.83
2711;BME280;20721;47.402;8.550;2024-03-23T02:39:40;95487;;;14.42;44.67
2711;BME280;20721;47.402;8.550;2024-03-23T02:41:40;95477;;;14.38;44.64
2711;BME280;20721;47.402;8.550;2024-03-23T02:43:40;95480;;;14.31;45.00
2711;BME280;20721;47.402;8.550;2024-03-23T02:45:40;95477;;;14.27;45.08
2711;BME280;20721;47.402;8.550;2024-03-23T02:47:40;95476;;;14.10;45.44
2711;BME280;20721;47.402;8.550;2024-03-23T02:49:40;95480;;;13.89;46.09
2711;BME280;20721;47.402;8.550;2024-03-23T02:51:40;95473;;;13.79;46.14
2711;BME280;20721;47.402;8.550;2024-03-23T02:53:40;95476;;;13.86;46.07
2711;BME280;20721;47.402;8.550;2024-03-23T02:55:40;95467;;;13.93;45.95
2711;BME280;20721;47.402;8.550;2024-03-23T02:57:40;95466;;;13.81;46.07
2711;BME280;20721;47.402;8.550;2024-03-23T02:59:40;95465;;;13.80;45.85
2711;BME280;20721;47.402;8.550;2024-03-23T03:01:40;95463;;;13.77;46.07
2711;BME280;20721;47.402;8.550;2024-03-23T03:03:40;95463;;;13.83;46.03
2711;BME280;20721;47.402;8.550;2024-03-23T03:05:40;95458;;;13.83;45.90
2711;BME280;20721;47.402;8.550;2024-03-23T03:07:40;95460;;;13.93;46.02
2711;BME280;20721;47.402;8.550;2024-03-23T03:09:40;95455;;;13.84;45.57
2711;BME280;20721;47.402;8.550;2024-03-23T03:11:40;95461;;;13.63;46.03
2711;BME280;20721;47.402;8.550;2024-03-23T03:13:40;95458;;;13.58;46.58
2711;BME280;20721;47.402;8.550;2024-03-23T03:15:42;95462;;;13.56;46.91
2711;BME280;20721;47.402;8.550;2024-03-23T03:17:40;95468;;;13.65;46.79
2711;BME280;20721;47.402;8.550;2024-03-23T03:19:40;95464;;;13.63;46.86
2711;BME280;20721;47.402;8.550;2024-03-23T03:21:40;95458;;;13.79;46.46
2711;BME280;20721;47.402;8.550;2024-03-23T03:24:40;95462;;;13.87;46.13
2711;BME280;20721;47.402;8.550;2024-03-23T03:26:40;95460;;;13.95;46.05
2711;BME280;20721;47.402;8.550;2024-03-23T03:28:40;95467;;;14.16;45.90
2711;BME280;20721;47.402;8.550;2024-03-23T03:30:40;95463;;;14.38;45.81
2711;BME280;20721;47.402;8.550;2024-03-23T03:32:40;95463;;;14.52;45.69
2711;BME280;20721;47.402;8.550;2024-03-23T03:34:40;95457;;;14.49;46.01
2711;BME280;20721;47.402;8.550;2024-03-23T03:36:40;95454;;;14.55;45.95
2711;BME280;20721;47.402;8.550;2024-03-23T03:38:40;95457;;;14.60;45.74
2711;BME280;20721;47.402;8.550;2024-03-23T03:40:41;95450;;;14.64;45.74
2711;BME280;20721;47.402;8.550;2024-03-23T03:42:40;95448;;;14.61;45.99
2711;BME280;20721;47.402;8.550;2024-03-23T03:45:40;95450;;;14.60;45.90
2711;BME280;20721;47.402;8.550;2024-03-23T03:47:40;95440;;;14.63;45.67
2711;BME280;20721;47.402;8.550;2024-03-23T03:49:40;95445;;;14.66;45.58
2711;BME280;20721;47.402;8.550;2024-03-23T03:51:40;95441;;;14.69;45.30
2711;BME280;20721;47.402;8.550;2024-03-23T03:53:40;95431;;;14.70;45.08
2711;BME280;20721;47.402;8.550;2024-03-23T03:56:40;95426;;;14.72;44.95
2711;BME280;20721;47.402;8.550;2024-03-23T03:58:40;95420;;;14.69;44.93
2711;BME280;20721;47.402;8.550;2024-03-23T04:00:40;95416;;;14.70;44.74
2711;BME280;20721;47.402;8.550;2024-03-23T04:02:40;95408;;;14.73;44.32
2711;BME280;20721;47.402;8.550;2024-03-23T04:05:40;95401;;;14.75;44.41
2711;BME280;20721;47.402;8.550;2024-03-23T04:07:40;95392;;;14.74;43.84
2711;BME280;20721;47.402;8.550;2024-03-23T04:10:40;95388;;;14.75;43.73
2711;BME280;20721;47.402;8.550;2024-03-23T04:12:40;95380;;;14.66;43.73
2711;BME280;20721;47.402;8.550;2024-03-23T04:14:40;95377;;;14.66;43.71
2711;BME280;20721;47.402;8.550;2024-03-23T04:16:40;95371;;;14.58;43.61
2711;BME280;20721;47.402;8.550;2024-03-23T04:18:40;95372;;;14.45;44.17
2711;BME280;20721;47.402;8.550;2024-03-23T04:20:40;95366;;;14.41;44.31
2711;BME280;20721;47.402;8.550;2024-03-23T04:22:40;95358;;;14.19;44.60
2711;BME280;20721;47.402;8.550;2024-03-23T04:24:40;95361;;;14.21;44.89
2711;BME280;20721;47.402;8.550;2024-03-23T04:26:41;95355;;;14.31;44.74
2711;BME280;20721;47.402;8.550;2024-03-23T04:28:40;95344;;;14.37;44.48
2711;BME280;20721;47.402;8.550;2024-03-23T04:30:40;95344;;;14.35;44.38
2711;BME280;20721;47.402;8.550;2024-03-23T04:32:41;95338;;;14.13;44.88
2711;BME280;20721;47.402;8.550;2024-03-23T04:35:40;95331;;;14.14;44.87
2711;BME280;20721;47.402;8.550;2024-03-23T04:38:41;95323;;;14.19;44.84
2711;BME280;20721;47.402;8.550;2024-03-23T04:40:40;95334;;;14.28;44.81
2711;BME280;20721;47.402;8.550;2024-03-23T04:42:40;95326;;;14.34;44.59
2711;BME280;20721;47.402;8.550;2024-03-23T04:44:40;95321;;;14.39;44.53
2711;BME280;20721;47.402;8.550;2024-03-23T04:47:40;95319;;;14.45;44.37
2711;BME280;20721;47.402;8.550;2024-03-23T04:49:40;95311;;;14.49;44.33
2711;BME280;20721;47.402;8.550;2024-03-23T04:51:45;95307;;;14.49;44.07
2711;BME280;20721;47.402;8.550;2024-03-23T04:54:40;95302;;;14.51;43.89
2711;BME280;20721;47.402;8.550;2024-03-23T04:56:40;95301;;;14.43;43.99
2711;BME280;20721;47.402;8.550;2024-03-23T04:58:40;95294;;;14.36;44.02
2711;BME280;20721;47.402;8.550;2024-03-23T05:00:40;95301;;;14.33;44.28
2711;BME280;20721;47.402;8.550;2024-03-23T05:02:40;95300;;;14.41;43.97
2711;BME280;20721;47.402;8.550;2024-03-23T05:04:41;95293;;;14.41;44.06
2711;BME280;20721;47.402;8.550;2024-03-23T05:06:40;95297;;;14.45;43.90
2711;BME280;20721;47.402;8.550;2024-03-23T05:08:40;95297;;;14.42;43.96
2711;BME280;20721;47.402;8.550;2024-03-23T05:11:41;95293;;;14.47;43.90
2711;BME280;20721;47.402;8.550;2024-03-23T05:13:41;95292;;;14.62;43.75
2711;BME280;20721;47.402;8.550;2024-03-23T05:15:40;95295;;;14.72;43.67
2711;BME280;20721;47.402;8.550;2024-03-23T05:17:40;95302;;;14.60;43.79
2711;BME280;20721;47.402;8.550;2024-03-23T05:19:40;95310;;;14.69;43.85
2711;BME280;20721;47.402;8.550;2024-03-23T05:21:40;95322;;;14.76;43.86
2711;BME280;20721;47.402;8.550;2024-03-23T05:23:40;95343;;;14.78;44.03
2711;BME280;20721;47.402;8.550;2024-03-23T05:25:40;95359;;;14.80;44.20
2711;BME280;20721;47.402;8.550;2024-03-23T05:27:40;95375;;;14.71;44.59
2711;BME280;20721;47.402;8.550;2024-03-23T05:29:40;95402;;;14.40;47.04
2711;BME280;20721;47.402;8.550;2024-03-23T05:31:41;95397;;;14.18;50.01
2711;BME280;20721;47.402;8.550;2024-03-23T05:33:40;95406;;;13.93;52.63
2711;BME280;20721;47.402;8.550;2024-03-23T05:35:40;95412;;;13.57;55.74
2711;BME280;20721;47.402;8.550;2024-03-23T05:37:40;95409;;;13.47;57.25
2711;BME280;20721;47.402;8.550;2024-03-23T05:39:40;95432;;;13.20;57.58
2711;BME280;20721;47.402;8.550;2024-03-23T05:41:40;95398;;;13.06;58.50
2711;BME280;20721;47.402;8.550;2024-03-23T05:43:40;95416;;;13.03;59.37
2711;BME280;20721;47.402;8.550;2024-03-23T05:45:40;95398;;;12.91;59.36
2711;BME280;20721;47.402;8.550;2024-03-23T05:47:40;95396;;;12.74;59.74
2711;BME280;20721;47.402;8.550;2024-03-23T05:49:42;95411;;;12.73;60.74
2711;BME280;20721;47.402;8.550;2024-03-23T05:51:40;95412;;;12.69;60.29
2711;BME280;20721;47.402;8.550;2024-03-23T05:53:40;95417;;;12.69;60.34
2711;BME280;20721;47.402;8.550;2024-03-23T05:55:40;95424;;;12.77;61.07
2711;BME280;20721;47.402;8.550;2024-03-23T05:57:40;95436;;;12.77;60.91
2711;BME280;20721;47.402;8.550;2024-03-23T05:59:40;95432;;;12.75;61.30
2711;BME280;20721;47.402;8.550;2024-03-23T06:01:40;95449;;;12.77;61.94
2711;BME280;20721;47.402;8.550;2024-03-23T06:03:40;95444;;;12.77;62.03
2711;BME280;20721;47.402;8.550;2024-03-23T06:05:42;95440;;;12.79;62.94
2711;BME280;20721;47.402;8.550;2024-03-23T06:07:40;95448;;;12.89;62.65
2711;BME280;20721;47.402;8.550;2024-03-23T06:09:41;95453;;;12.98;62.77
2711;BME280;20721;47.402;8.550;2024-03-23T06:11:40;95455;;;13.07;62.87
2711;BME280;20721;47.402;8.550;2024-03-23T06:13:40;95461;;;13.13;63.48
2711;BME280;20721;47.402;8.550;2024-03-23T06:15:40;95468;;;13.07;63.59
2711;BME280;20721;47.402;8.550;2024-03-23T06:17:41;95478;;;12.96;65.04
2711;BME280;20721;47.402;8.550;2024-03-23T06:19:40;95478;;;12.77;64.12
2711;BME280;20721;47.402;8.550;2024-03-23T06:21:43;95478;;;12.54;64.97
2711;BME280;20721;47.402;8.550;2024-03-23T06:23:41;95495;;;12.32;64.52
2711;BME280;20721;47.402;8.550;2024-03-23T06:25:40;95499;;;12.38;64.62
2711;BME280;20721;47.402;8.550;2024-03-23T06:27:40;95503;;;12.27;64.81
2711;BME280;20721;47.402;8.550;2024-03-23T06:29:40;95498;;;12.28;64.45
2711;BME280;20721;47.402;8.550;2024-03-23T06:31:40;95505;;;12.19;64.43
2711;BME280;20721;47.402;8.550;2024-03-23T06:34:41;95503;;;12.03;64.70
2711;BME280;20721;47.402;8.550;2024-03-23T06:36:40;95498;;;11.95;64.26
2711;BME280;20721;47.402;8.550;2024-03-23T06:38:40;95499;;;11.96;64.53
2711;BME280;20721;47.402;8.550;2024-03-23T06:40:40;95487;;;11.84;63.25
2711;BME280;20721;47.402;8.550;2024-03-23T06:42:40;95494;;;11.86;64.04
2711;BME280;20721;47.402;8.550;2024-03-23T06:44:40;95497;;;11.91;64.02
2711;BME280;20721;47.402;8.550;2024-03-23T06:46:41;95493;;;11.90;64.01
2711;BME280;20721;47.402;8.550;2024-03-23T06:48:40;95490;;;11.84;63.01
2711;BME280;20721;47.402;8.550;2024-03-23T06:50:40;95496;;;11.87;63.91
2711;BME280;20721;47.402;8.550;2024-03-23T06:52:40;95501;;;11.97;63.59
2711;BME280;20721;47.402;8.550;2024-03-23T06:55:41;95515;;;11.97;63.54
2711;BME280;20721;47.402;8.550;2024-03-23T06:57:40;95526;;;11.85;63.68
2711;BME280;20721;47.402;8.550;2024-03-23T06:59:40;95525;;;11.85;63.79
2711;BME280;20721;47.402;8.550;2024-03-23T07:01:42;95536;;;11.92;63.54
2711;BME280;20721;47.402;8.550;2024-03-23T07:03:40;95544;;;11.96;63.35
2711;BME280;20721;47.402;8.550;2024-03-23T07:05:41;95540;;;12.00;63.51
2711;BME280;20721;47.402;8.550;2024-03-23T07:07:41;95521;;;12.07;63.46
2711;BME280;20721;47.402;8.550;2024-03-23T07:09:40;95536;;;12.03;62.63
2711;BME280;20721;47.402;8.550;2024-03-23T07:11:40;95538;;;11.88;63.00
2711;BME280;20721;47.402;8.550;2024-03-23T07:14:41;95544;;;11.89;63.70
2711;BME280;20721;47.402;8.550;2024-03-23T07:16:40;95557;;;11.89;63.19
2711;BME280;20721;47.402;8.550;2024-03-23T07:18:40;95567;;;11.92;63.39
2711;BME280;20721;47.402;8.550;2024-03-23T07:21:40;95570;;;11.92;63.53
2711;BME280;20721;47.402;8.550;2024-03-23T07:23:42;95565;;;11.97;63.52
2711;BME280;20721;47.402;8.550;2024-03-23T07:25:40;95570;;;12.04;63.07
2711;BME280;20721;47.402;8.550;2024-03-23T07:26:40;95565;;;12.00;62.61
2711;BME280;20721;47.402;8.550;2024-03-23T07:28:43;95565;;;12.03;62.54
2711;BME280;20721;47.402;8.550;2024-03-23T07:30:40;95560;;;12.03;62.23
2711;BME280;20721;47.402;8.550;2024-03-23T07:31:41;95571;;;12.07;62.25
2711;BME280;20721;47.402;8.550;2024-03-23T07:33:42;95568;;;12.00;62.01
2711;BME280;20721;47.402;8.550;2024-03-23T07:35:41;95571;;;11.95;61.75
2711;BME280;20721;47.402;8.550;2024-03-23T07:37:42;95575;;;11.82;61.95
2711;BME280;20721;47.402;8.550;2024-03-23T07:39:40;95571;;;11.80;61.97
2711;BME280;20721;47.402;8.550;2024-03-23T07:41:41;95582;;;11.77;61.30
2711;BME280;20721;47.402;8.550;2024-03-23T07:43:41;95577;;;11.89;61.03
2711;BME280;20721;47.402;8.550;2024-03-23T07:45:41;95597;;;11.79;60.89
2711;BME280;20721;47.402;8.550;2024-03-23T07:47:41;95606;;;11.75;61.07
2711;BME280;20721;47.402;8.550;2024-03-23T07:49:41;95614;;;11.78;60.85
2711;BME280;20721;47.402;8.550;2024-03-23T07:51:41;95632;;;11.76;61.82
2711;BME280;20721;47.402;8.550;2024-03-23T07:53:42;95647;;;11.50;62.72
2711;BME280;20721;47.402;8.550;2024-03-23T07:55:40;95660;;;11.33;63.43
2711;BME280;20721;47.402;8.550;2024-03-23T07:57:41;95674;;;11.24;63.58
2711;BME280;20721;47.402;8.550;2024-03-23T07:59:41;95685;;;11.03;64.97
2711;BME280;20721;47.402;8.550;2024-03-23T08:01:41;95684;;;10.96;64.60
2711;BME280;20721;47.402;8.550;2024-03-23T08:03:42;95681;;;10.93;60.54
2711;BME280;20721;47.402;8.550;2024-03-23T08:05:41;95680;;;10.74;61.73
2711;BME280;20721;47.402;8.550;2024-03-23T08:07:41;95671;;;10.64;60.79
2711;BME280;20721;47.402;8.550;2024-03-23T08:09:41;95674;;;10.60;60.83
2711;BME280;20721;47.402;8.550;2024-03-23T08:11:43;95689;;;10.59;61.67
2711;BME280;20721;47.402;8.550;2024-03-23T08:13:41;95700;;;10.53;61.03
2711;BME280;20721;47.402;8.550;2024-03-23T08:15:41;95721;;;10.46;60.77
2711;BME280;20721;47.402;8.550;2024-03-23T08:17:41;95756;;;10.43;60.70
2711;BME280;20721;47.402;8.550;2024-03-23T08:19:41;95745;;;10.36;59.76
2711;BME280;20721;47.402;8.550;2024-03-23T08:21:41;95761;;;10.56;60.00
2711;BME280;20721;47.402;8.550;2024-03-23T08:23:41;95748;;;10.68;59.21
2711;BME280;20721;47.402;8.550;2024-03-23T08:25:41;95772;;;10.54;60.04
2711;BME280;20721;47.402;8.550;2024-03-23T08:27:41;95771;;;10.54;59.72
2711;BME280;20721;47.402;8.550;2024-03-23T08:29:41;95789;;;10.39;59.20
2711;BME280;20721;47.402;8.550;2024-03-23T08:31:41;95788;;;10.21;59.58
2711;BME280;20721;47.402;8.550;2024-03-23T08:33:42;95800;;;10.25;59.32
2711;BME280;20721;47.402;8.550;2024-03-23T08:35:41;95783;;;10.17;58.24
2711;BME280;20721;47.402;8.550;2024-03-23T08:37:41;95787;;;10.27;57.58
2711;BME280;20721;47.402;8.550;2024-03-23T08:39:42;95795;;;10.45;57.82
2711;BME280;20721;47.402;8.550;2024-03-23T08:41:43;95805;;;10.22;55.50
2711;BME280;20721;47.402;8.550;2024-03-23T08:43:41;95809;;;10.24;57.83
2711;BME280;20721;47.402;8.550;2024-03-23T08:45:41;95806;;;10.33;57.39
2711;BME280;20721;47.402;8.550;2024-03-23T08:47:41;95807;;;10.15;55.77
2711;BME280;20721;47.402;8.550;2024-03-23T08:49:41;95792;;;10.25;56.29
2711;BME280;20721;47.402;8.550;2024-03-23T08:51:41;95806;;;10.68;55.56
2711;BME280;20721;47.402;8.550;2024-03-23T08:53:41;95807;;;11.11;53.74
2711;BME280;20721;47.402;8.550;2024-03-23T08:55:41;95808;;;11.42;52.44
2711;BME280;20721;47.402;8.550;2024-03-23T08:57:41;95806;;;11.44;51.11
2711;BME280;20721;47.402;8.550;2024-03-23T08:59:41;95803;;;11.38;51.68
2711;BME280;20721;47.402;8.550;2024-03-23T09:01:41;95829;;;11.25;51.23
2711;BME280;20721;47.402;8.550;2024-03-23T09:03:41;95810;;;11.81;49.60
2711;BME280;20721;47.402;8.550;2024-03-23T09:05:41;95800;;;12.02;48.46
2711;BME280;20721;47.402;8.550;2024-03-23T09:07:41;95790;;;11.77;47.71
2711;BME280;20721;47.402;8.550;2024-03-23T09:09:41;95807;;;11.70;49.26
2711;BME280;20721;47.402;8.550;2024-03-23T09:11:41;95800;;;11.68;48.81
2711;BME280;20721;47.402;8.550;2024-03-23T09:13:42;95810;;;11.78;47.41
2711;BME280;20721;47.402;8.550;2024-03-23T09:15:46;95817;;;12.72;47.09
2711;BME280;20721;47.402;8.550;2024-03-23T09:17:41;95842;;;13.12;44.46
2711;BME280;20721;47.402;8.550;2024-03-23T09:19:41;95822;;;12.73;44.30
2711;BME280;20721;47.402;8.550;2024-03-23T09:21:41;95832;;;12.53;45.78
2711;BME280;20721;47.402;8.550;2024-03-23T09:23:43;95842;;;12.45;46.19
2711;BME280;20721;47.402;8.550;2024-03-23T09:25:43;95833;;;12.25;46.30
2711;BME280;20721;47.402;8.550;2024-03-23T09:27:41;95835;;;12.40;46.18
2711;BME280;20721;47.402;8.550;2024-03-23T09:29:41;95834;;;12.43;44.89
2711;BME280;20721;47.402;8.550;2024-03-23T09:31:41;95852;;;12.09;45.33
2711;BME280;20721;47.402;8.550;2024-03-23T09:33:41;95862;;;11.87;45.58
2711;BME280;20721;47.402;8.550;2024-03-23T09:35:41;95857;;;11.71;45.62
2711;BME280;20721;47.402;8.550;2024-03-23T09:37:41;95862;;;11.85;46.38
2711;BME280;20721;47.402;8.550;2024-03-23T09:39:41;95855;;;12.07;46.62
2711;BME280;20721;47.402;8.550;2024-03-23T09:41:41;95856;;;11.99;45.65
2711;BME280;20721;47.402;8.550;2024-03-23T09:43:41;95856;;;12.04;45.29
2711;BME280;20721;47.402;8.550;2024-03-23T09:45:41;95847;;;12.39;45.56
2711;BME280;20721;47.402;8.550;2024-03-23T09:47:41;95850;;;12.27;44.32
2711;BME280;20721;47.402;8.550;2024-03-23T09:49:41;95847;;;12.77;43.79
2711;BME280;20721;47.402;8.550;2024-03-23T09:51:41;95842;;;12.90;42.22
2711;BME280;20721;47.402;8.550;2024-03-23T09:53:41;95833;;;12.65;43.30
2711;BME280;20721;47.402;8.550;2024-03-23T09:55:42;95849;;;12.36;43.65
2711;BME280;20721;47.402;8.550;2024-03-23T09:57:41;95855;;;12.35;44.28
2711;BME280;20721;47.402;8.550;2024-03-23T09:59:41;95866;;;12.14;43.34
2711;BME280;20721;47.402;8.550;2024-03-23T10:02:41;95853;;;11.92;43.82
2711;BME280;20721;47.402;8.550;2024-03-23T10:04:41;95874;;;11.60;44.12
2711;BME280;20721;47.402;8.550;2024-03-23T10:06:41;95865;;;11.46;45.06
2711;BME280;20721;47.402;8.550;2024-03-23T10:08:41;95890;;;11.42;45.22
2711;BME280;20721;47.402;8.550;2024-03-23T10:10:41;95883;;;11.19;44.79
2711;BME280;20721;47.402;8.550;2024-03-23T10:12:43;95892;;;11.23;45.04
2711;BME280;20721;47.402;8.550;2024-03-23T10:14:41;95884;;;11.18;45.24
2711;BME280;20721;47.402;8.550;2024-03-23T10:16:41;95890;;;11.33;44.76
2711;BME280;20721;47.402;8.550;2024-03-23T10:18:41;95895;;;11.24;44.26
2711;BME280;20721;47.402;8.550;2024-03-23T10:20:41;95887;;;11.18;43.64
2711;BME280;20721;47.402;8.550;2024-03-23T10:22:41;95885;;;11.00;43.68
2711;BME280;20721;47.402;8.550;2024-03-23T10:24:41;95905;;;10.88;43.85
2711;BME280;20721;47.402;8.550;2024-03-23T10:26:41;95905;;;10.84;43.70
2711;BME280;20721;47.402;8.550;2024-03-23T10:29:01;95897;;;10.95;43.83
2711;BME280;20721;47.402;8.550;2024-03-23T10:30:41;95897;;;10.90;44.13
2711;BME280;20721;47.402;8.550;2024-03-23T10:32:41;95910;;;10.90;43.94
2711;BME280;20721;47.402;8.550;2024-03-23T10:34:41;95904;;;11.14;43.64
2711;BME280;20721;47.402;8.550;2024-03-23T10:36:41;95902;;;11.31;43.25
2711;BME280;20721;47.402;8.550;2024-03-23T10:38:42;95907;;;11.30;42.46
2711;BME280;20721;47.402;8.550;2024-03-23T10:40:42;95911;;;11.29;42.98
2711;BME280;20721;47.402;8.550;2024-03-23T10:42:41;95918;;;11.43;42.43
2711;BME280;20721;47.402;8.550;2024-03-23T10:45:41;95911;;;11.44;41.60
2711;BME280;20721;47.402;8.550;2024-03-23T10:47:42;95914;;;11.37;41.18
2711;BME280;20721;47.402;8.550;2024-03-23T10:49:41;95918;;;11.63;41.36
2711;BME280;20721;47.402;8.550;2024-03-23T10:51:41;95912;;;11.86;40.79
2711;BME280;20721;47.402;8.550;2024-03-23T10:53:42;95922;;;12.07;40.76
2711;BME280;20721;47.402;8.550;2024-03-23T10:55:41;95915;;;12.09;39.74
2711;BME280;20721;47.402;8.550;2024-03-23T10:57:42;95915;;;12.21;39.74
2711;BME280;20721;47.402;8.550;2024-03-23T10:59:41;95901;;;12.48;38.94
2711;BME280;20721;47.402;8.550;2024-03-23T11:02:00;95908;;;12.89;38.96
2711;BME280;20721;47.402;8.550;2024-03-23T11:03:45;95911;;;13.25;39.35
2711;BME280;20721;47.402;8.550;2024-03-23T11:05:46;95911;;;13.29;38.54
2711;BME280;20721;47.402;8.550;2024-03-23T11:07:41;95903;;;13.68;38.28
2711;BME280;20721;47.402;8.550;2024-03-23T11:09:44;95905;;;13.96;37.99
2711;BME280;20721;47.402;8.550;2024-03-23T11:11:41;95904;;;14.23;37.97
2711;BME280;20721;47.402;8.550;2024-03-23T11:13:41;95896;;;14.18;36.27
2711;BME280;20721;47.402;8.550;2024-03-23T11:15:41;95889;;;14.36;35.39
2711;BME280;20721;47.402;8.550;2024-03-23T11:17:41;95902;;;14.06;34.72
2711;BME280;20721;47.402;8.550;2024-03-23T11:19:41;95904;;;13.99;35.23
2711;BME280;20721;47.402;8.550;2024-03-23T11:22:01;95899;;;14.14;35.64
2711;BME280;20721;47.402;8.550;2024-03-23T11:23:41;95881;;;14.41;35.03
2711;BME280;20721;47.402;8.550;2024-03-23T11:25:41;95902;;;14.08;33.71
2711;BME280;20721;47.402;8.550;2024-03-23T11:27:42;95892;;;14.03;34.53
2711;BME280;20721;47.402;8.550;2024-03-23T11:29:41;95896;;;14.18;34.69
2711;BME280;20721;47.402;8.550;2024-03-23T11:31:47;95888;;;14.37;34.42
2711;BME280;20721;47.402;8.550;2024-03-23T11:33:41;95887;;;14.71;34.35
2711;BME280;20721;47.402;8.550;2024-03-23T11:35:41;95894;;;14.79;33.36
2711;BME280;20721;47.402;8.550;2024-03-23T11:37:41;95892;;;14.71;32.40
2711;BME280;20721;47.402;8.550;2024-03-23T11:39:41;95889;;;14.14;33.07
2711;BME280;20721;47.402;8.550;2024-03-23T11:42:41;95890;;;13.79;33.52
2711;BME280;20721;47.402;8.550;2024-03-23T11:44:41;95886;;;13.50;32.99
2711;BME280;20721;47.402;8.550;2024-03-23T11:46:41;95900;;;13.56;33.92
2711;BME280;20721;47.402;8.550;2024-03-23T11:48:41;95890;;;13.48;33.90
2711;BME280;20721;47.402;8.550;2024-03-23T11:50:42;95888;;;13.68;34.48
2711;BME280;20721;47.402;8.550;2024-03-23T11:52:41;95885;;;13.63;32.83
2711;BME280;20721;47.402;8.550;2024-03-23T11:54:41;95888;;;13.79;33.00
2711;BME280;20721;47.402;8.550;2024-03-23T11:56:53;95882;;;13.82;32.76
2711;BME280;20721;47.402;8.550;2024-03-23T11:58:41;95884;;;13.90;32.57
2711;BME280;20721;47.402;8.550;2024-03-23T12:00:41;95878;;;13.81;32.09
2711;BME280;20721;47.402;8.550;2024-03-23T12:02:41;95869;;;13.85;32.61
2711;BME280;20721;47.402;8.550;2024-03-23T12:04:42;95871;;;14.12;32.04
2711;BME280;20721;47.402;8.550;2024-03-23T12:06:41;95862;;;14.38;32.19
2711;BME280;20721;47.402;8.550;2024-03-23T12:09:42;95861;;;14.36;31.74
2711;BME280;20721;47.402;8.550;2024-03-23T12:11:41;95856;;;14.50;31.70
2711;BME280;20721;47.402;8.550;2024-03-23T12:13:44;95883;;;14.38;31.53
2711;BME280;20721;47.402;8.550;2024-03-23T12:15:42;95860;;;14.30;32.00
2711;BME280;20721;47.402;8.550;2024-03-23T12:17:41;95866;;;14.65;33.02
2711;BME280;20721;47.402;8.550;2024-03-23T12:19:41;95899;;;14.75;35.06
2711;BME280;20721;47.402;8.550;2024-03-23T12:21:41;95902;;;14.28;38.03